createdAt,value
2022-08-24T00:01:10.730Z,19.30
2022-08-24T00:03:39.327Z,19.30
2022-08-24T00:06:08.330Z,19.20
2022-08-24T00:08:35.842Z,19.30
2022-08-24T00:11:03.004Z,19.20
2022-08-24T00:13:29.638Z,19.20
2022-08-24T00:16:00.024Z,19.10
2022-08-24T00:18:27.446Z,19.10
2022-08-24T00:20:54.555Z,19.00
2022-08-24T00:23:21.547Z,19.00
2022-08-24T00:25:48.182Z,19.00
2022-08-24T00:28:15.351Z,19.00
2022-08-24T00:30:42.259Z,19.00
2022-08-24T00:33:08.983Z,19.00
2022-08-24T00:35:36.344Z,18.90
2022-08-24T00:38:03.263Z,19.00
2022-08-24T00:40:40.655Z,19.00
2022-08-24T00:43:09.070Z,19.00
2022-08-24T00:45:43.982Z,19.00
2022-08-24T00:48:27.256Z,18.90
2022-08-24T00:51:08.670Z,18.90
2022-08-24T00:53:45.596Z,18.90
2022-08-24T00:56:17.489Z,18.90
2022-08-24T00:58:52.754Z,18.90
2022-08-24T01:01:25.879Z,18.90
2022-08-24T01:03:56.860Z,18.80
2022-08-24T01:06:24.351Z,18.80
2022-08-24T01:08:56.265Z,18.80
2022-08-24T01:11:26.372Z,18.80
2022-08-24T01:13:53.856Z,18.80
2022-08-24T01:16:41.643Z,18.80
2022-08-24T01:19:28.871Z,18.90
2022-08-24T01:22:32.807Z,18.90
2022-08-24T01:25:00.510Z,18.90
2022-08-24T01:27:28.320Z,18.80
2022-08-24T01:29:55.927Z,18.80
2022-08-24T01:32:27.867Z,18.80
2022-08-24T01:34:56.236Z,18.80
2022-08-24T01:37:23.366Z,18.80
2022-08-24T01:39:53.794Z,18.70
2022-08-24T01:42:20.492Z,18.80
2022-08-24T01:44:48.050Z,18.80
2022-08-24T01:47:16.839Z,18.80
2022-08-24T01:49:47.008Z,18.80
2022-08-24T01:52:18.965Z,18.70
2022-08-24T01:54:45.783Z,18.70
2022-08-24T01:57:16.059Z,18.60
2022-08-24T01:59:43.155Z,18.60
2022-08-24T02:02:17.610Z,18.60
2022-08-24T02:04:44.426Z,18.60
2022-08-24T02:07:11.232Z,18.50
2022-08-24T02:09:38.758Z,18.60
2022-08-24T02:12:06.638Z,18.60
2022-08-24T02:14:34.239Z,18.60
2022-08-24T02:17:02.750Z,18.70
2022-08-24T02:19:29.351Z,18.70
2022-08-24T02:21:56.027Z,18.70
2022-08-24T02:24:22.680Z,18.70
2022-08-24T02:26:49.325Z,18.80
2022-08-24T02:29:16.330Z,18.80
2022-08-24T02:31:43.304Z,18.90
2022-08-24T02:34:09.975Z,18.90
2022-08-24T02:36:36.844Z,18.80
2022-08-24T02:39:04.425Z,18.90
2022-08-24T02:41:31.289Z,18.90
2022-08-24T02:43:58.142Z,19.00
2022-08-24T02:46:27.655Z,19.00
2022-08-24T02:49:10.158Z,19.00
2022-08-24T02:51:43.932Z,19.00
2022-08-24T02:54:12.142Z,19.00
2022-08-24T02:56:38.733Z,19.00
2022-08-24T02:59:05.318Z,19.00
2022-08-24T03:01:31.998Z,19.00
2022-08-24T03:03:58.965Z,19.00
2022-08-24T03:06:25.618Z,19.10
2022-08-24T03:08:56.417Z,19.10
2022-08-24T03:11:27.639Z,19.10
2022-08-24T03:13:56.028Z,19.10
2022-08-24T03:16:22.912Z,19.10
2022-08-24T03:18:49.600Z,19.10
2022-08-24T03:21:16.251Z,19.10
2022-08-24T03:23:43.200Z,19.10
2022-08-24T03:26:10.062Z,19.10
2022-08-24T03:28:36.720Z,19.10
2022-08-24T03:31:03.678Z,19.00
2022-08-24T03:33:30.326Z,18.80
2022-08-24T03:35:57.148Z,18.80
2022-08-24T03:38:24.157Z,18.80
2022-08-24T03:40:50.945Z,18.70
2022-08-24T03:43:36.554Z,18.60
2022-08-24T03:46:07.530Z,18.60
2022-08-24T03:48:34.337Z,18.60
2022-08-24T03:51:01.278Z,18.60
2022-08-24T03:53:27.870Z,18.50
2022-08-24T03:55:54.446Z,18.50
2022-08-24T03:58:21.058Z,18.40
2022-08-24T04:00:47.684Z,18.40
2022-08-24T04:03:14.306Z,18.40
2022-08-24T04:05:42.318Z,18.40
2022-08-24T04:08:09.864Z,18.40
2022-08-24T04:10:38.146Z,18.40
2022-08-24T04:13:04.889Z,18.40
2022-08-24T04:15:32.103Z,18.30
2022-08-24T04:17:58.799Z,18.30
2022-08-24T04:20:25.840Z,18.30
2022-08-24T04:22:53.612Z,18.20
2022-08-24T04:25:24.318Z,18.20
2022-08-24T04:27:51.830Z,18.20
2022-08-24T04:30:18.528Z,18.10
2022-08-24T04:32:45.349Z,18.00
2022-08-24T04:35:12.951Z,18.10
2022-08-24T04:37:39.623Z,18.00
2022-08-24T04:40:08.161Z,18.00
2022-08-24T04:42:35.492Z,18.00
2022-08-24T04:45:04.053Z,18.00
2022-08-24T04:47:30.690Z,17.90
2022-08-24T04:49:57.315Z,17.90
2022-08-24T04:52:24.152Z,18.00
2022-08-24T04:54:50.741Z,17.90
2022-08-24T04:57:18.535Z,17.90
2022-08-24T04:59:49.922Z,17.90
2022-08-24T05:02:16.573Z,17.90
2022-08-24T05:04:43.234Z,18.00
2022-08-24T05:07:09.834Z,18.00
2022-08-24T05:09:36.451Z,18.00
2022-08-24T05:12:03.543Z,18.00
2022-08-24T05:14:30.394Z,18.00
2022-08-24T05:16:57.016Z,18.00
2022-08-24T05:19:23.933Z,18.00
2022-08-24T05:21:50.915Z,18.00
2022-08-24T05:24:19.429Z,18.00
2022-08-24T05:26:46.798Z,18.00
2022-08-24T05:29:14.549Z,17.90
2022-08-24T05:31:44.758Z,18.00
2022-08-24T05:34:12.040Z,18.00
2022-08-24T05:36:39.751Z,18.10
2022-08-24T05:39:12.665Z,18.10
2022-08-24T05:41:44.177Z,18.00
2022-08-24T05:44:12.522Z,18.10
2022-08-24T05:46:39.227Z,18.10
2022-08-24T05:49:06.118Z,18.10
2022-08-24T05:51:33.248Z,18.10
2022-08-24T05:54:00.668Z,18.20
2022-08-24T05:56:31.873Z,18.30
2022-08-24T05:58:59.225Z,18.30
2022-08-24T06:01:27.016Z,18.30
2022-08-24T06:03:55.389Z,18.30
2022-08-24T06:06:23.457Z,18.30
2022-08-24T06:08:52.936Z,18.40
2022-08-24T06:11:30.274Z,18.40
2022-08-24T06:14:02.492Z,18.50
2022-08-24T06:16:39.084Z,18.70
2022-08-24T06:19:06.927Z,18.70
2022-08-24T06:21:33.844Z,18.80
2022-08-24T06:24:00.926Z,18.80
2022-08-24T06:26:49.879Z,18.80
2022-08-24T06:29:17.751Z,18.90
2022-08-24T06:31:46.960Z,18.90
2022-08-24T06:34:16.111Z,18.90
2022-08-24T06:36:42.735Z,19.10
2022-08-24T06:39:10.289Z,19.10
2022-08-24T06:41:40.378Z,19.20
2022-08-24T06:44:07.727Z,19.30
2022-08-24T06:46:36.458Z,19.40
2022-08-24T06:49:03.670Z,19.50
2022-08-24T06:51:31.733Z,19.50
2022-08-24T06:53:58.702Z,19.60
2022-08-24T06:56:25.322Z,19.60
2022-08-24T06:58:52.036Z,19.60
2022-08-24T07:01:24.625Z,19.70
2022-08-24T07:03:51.806Z,19.60
2022-08-24T07:06:19.021Z,19.60
2022-08-24T07:08:45.803Z,19.60
2022-08-24T07:11:14.689Z,19.60
2022-08-24T07:13:41.929Z,19.60
2022-08-24T07:16:10.069Z,19.50
2022-08-24T07:18:37.247Z,19.50
2022-08-24T07:21:04.878Z,19.50
2022-08-24T07:23:42.248Z,19.40
2022-08-24T07:26:18.844Z,19.60
2022-08-24T07:28:49.910Z,19.50
2022-08-24T07:31:16.570Z,19.70
2022-08-24T07:33:43.290Z,19.70
2022-08-24T07:36:16.938Z,19.90
2022-08-24T07:38:49.117Z,19.90
2022-08-24T07:41:38.261Z,20.10
2022-08-24T07:44:02.426Z,20.00
2022-08-24T07:46:29.112Z,19.90
2022-08-24T07:49:05.113Z,19.90
2022-08-24T07:51:46.613Z,20.10
2022-08-24T07:54:13.690Z,20.40
2022-08-24T07:56:41.058Z,20.40
2022-08-24T07:59:12.435Z,20.50
2022-08-24T08:01:41.435Z,20.70
2022-08-24T08:04:08.869Z,20.80
2022-08-24T08:06:36.378Z,21.00
2022-08-24T08:09:05.077Z,21.10
2022-08-24T08:11:32.125Z,21.00
2022-08-24T08:13:58.819Z,21.10
2022-08-24T08:16:26.199Z,21.10
2022-08-24T08:19:09.219Z,21.10
2022-08-24T08:22:00.790Z,21.20
2022-08-24T08:24:27.783Z,21.20
2022-08-24T08:26:54.758Z,21.30
2022-08-24T08:29:21.337Z,21.60
2022-08-24T08:31:48.035Z,21.40
2022-08-24T08:34:15.010Z,21.40
2022-08-24T08:36:41.891Z,21.60
2022-08-24T08:39:11.142Z,21.80
2022-08-24T08:42:06.153Z,21.70
2022-08-24T08:44:45.845Z,21.90
2022-08-24T08:47:49.818Z,21.90
2022-08-24T08:50:29.038Z,21.90
2022-08-24T08:53:13.720Z,22.20
2022-08-24T08:55:48.382Z,22.20
2022-08-24T08:58:59.531Z,22.20
2022-08-24T09:02:04.583Z,22.20
2022-08-24T09:05:09.757Z,22.30
2022-08-24T09:08:04.145Z,22.30
2022-08-24T09:10:54.586Z,22.40
2022-08-24T09:14:00.880Z,22.30
2022-08-24T09:16:43.531Z,22.50
2022-08-24T09:19:34.576Z,22.60
2022-08-24T09:22:19.296Z,22.70
2022-08-24T09:24:54.965Z,22.90
2022-08-24T09:27:46.206Z,22.70
2022-08-24T09:30:23.745Z,22.80
2022-08-24T09:33:08.936Z,22.80
2022-08-24T09:36:03.811Z,22.70
2022-08-24T09:39:17.494Z,22.90
2022-08-24T09:41:44.352Z,22.80
2022-08-24T09:44:35.629Z,22.70
2022-08-24T09:47:18.709Z,22.60
2022-08-24T09:50:24.526Z,22.40
2022-08-24T09:53:08.085Z,22.50
2022-08-24T09:55:58.719Z,22.50
2022-08-24T09:58:44.808Z,22.70
2022-08-24T10:01:32.695Z,22.80
2022-08-24T10:04:28.167Z,22.90
2022-08-24T10:07:14.709Z,23.10
2022-08-24T10:10:07.677Z,22.90
2022-08-24T10:13:04.205Z,23.00
2022-08-24T10:15:42.686Z,23.00
2022-08-24T10:18:35.727Z,23.00
2022-08-24T10:21:26.241Z,23.20
2022-08-24T10:24:13.232Z,23.40
2022-08-24T10:27:06.312Z,23.70
2022-08-24T10:30:03.521Z,23.70
2022-08-24T10:32:45.761Z,23.60
2022-08-24T10:35:48.651Z,23.60
2022-08-24T10:38:59.000Z,23.60
2022-08-24T10:41:57.739Z,23.60
2022-08-24T10:44:42.848Z,24.00
2022-08-24T10:47:30.835Z,24.20
2022-08-24T10:50:32.810Z,24.30
2022-08-24T10:53:23.923Z,24.40
2022-08-24T10:56:08.211Z,24.80
2022-08-24T10:58:57.965Z,25.10
2022-08-24T11:01:34.630Z,25.00
2022-08-24T11:04:06.885Z,25.40
2022-08-24T11:07:02.417Z,25.60
2022-08-24T11:09:53.132Z,25.60
2022-08-24T11:12:33.664Z,25.50
2022-08-24T11:15:04.058Z,25.00
2022-08-24T11:17:32.469Z,25.00
2022-08-24T11:19:59.528Z,25.30
2022-08-24T11:22:31.073Z,25.90
2022-08-24T11:25:07.291Z,26.50
2022-08-24T11:27:38.327Z,26.80
2022-08-24T11:30:26.611Z,27.00
2022-08-24T11:32:59.889Z,26.80
2022-08-24T11:35:33.199Z,26.60
2022-08-24T11:38:19.670Z,26.80
2022-08-24T11:41:13.121Z,27.10
2022-08-24T11:44:09.791Z,27.20
2022-08-24T11:46:48.646Z,27.50
2022-08-24T11:49:42.505Z,26.90
2022-08-24T11:52:53.009Z,26.50
2022-08-24T11:55:46.954Z,26.90
2022-08-24T11:58:40.179Z,26.20
2022-08-24T12:01:20.310Z,26.30
2022-08-24T12:04:09.295Z,26.60
2022-08-24T12:07:07.178Z,26.70
2022-08-24T12:09:53.198Z,26.90
2022-08-24T12:12:33.717Z,27.40
2022-08-24T14:37:05.864Z,29.00
2022-08-24T14:39:58.170Z,29.30
2022-08-24T14:43:06.140Z,29.60
2022-08-24T14:45:48.233Z,29.90
2022-08-24T14:48:48.415Z,30.00
2022-08-24T14:51:45.918Z,29.80
2022-08-24T14:54:57.645Z,29.90
2022-08-24T14:57:36.104Z,29.90
2022-08-24T15:00:07.193Z,29.80
2022-08-24T15:03:01.769Z,29.80
2022-08-24T15:05:34.853Z,29.50
2022-08-24T15:08:06.216Z,29.10
2022-08-24T15:10:58.834Z,28.90
2022-08-24T15:13:46.907Z,28.80
2022-08-24T15:16:21.067Z,28.90
2022-08-24T15:19:07.602Z,29.30
2022-08-24T15:21:40.261Z,30.50
2022-08-24T15:24:33.875Z,32.00
2022-08-24T15:27:24.505Z,33.30
2022-08-24T15:30:00.596Z,33.60
2022-08-24T15:32:44.882Z,33.60
2022-08-24T15:35:31.917Z,33.20
2022-08-24T15:38:15.945Z,31.40
2022-08-24T15:40:46.301Z,30.40
2022-08-24T15:43:13.790Z,29.90
2022-08-24T15:45:51.254Z,29.60
2022-08-24T15:48:21.549Z,29.20
2022-08-24T15:50:48.975Z,29.30
2022-08-24T15:53:30.924Z,29.50
2022-08-24T15:56:19.834Z,29.60
2022-08-24T15:58:47.442Z,29.60
2022-08-24T16:01:32.568Z,29.50
2022-08-24T16:04:09.200Z,29.50
2022-08-24T16:06:47.660Z,29.30
2022-08-24T16:09:32.661Z,29.20
2022-08-24T16:12:14.001Z,29.20
2022-08-24T16:14:47.323Z,29.10
2022-08-24T16:17:39.670Z,28.90
2022-08-24T16:20:14.622Z,28.80
2022-08-24T16:22:54.470Z,28.80
2022-08-24T16:25:34.764Z,28.70
2022-08-24T16:28:23.159Z,28.70
2022-08-24T16:31:00.830Z,28.30
2022-08-24T16:33:44.441Z,28.20
2022-08-24T16:36:14.855Z,28.20
2022-08-24T16:38:48.321Z,28.10
2022-08-24T16:41:21.156Z,28.10
2022-08-24T16:43:48.681Z,28.20
2022-08-24T16:46:20.692Z,28.30
2022-08-24T16:48:47.390Z,28.30
2022-08-24T16:51:13.988Z,28.40
2022-08-24T16:53:40.604Z,28.40
2022-08-24T16:56:08.783Z,28.30
2022-08-24T16:58:35.857Z,28.40
2022-08-24T17:01:03.072Z,28.40
2022-08-24T17:03:30.018Z,28.40
2022-08-24T17:05:57.346Z,28.40
2022-08-24T17:08:26.176Z,28.60
2022-08-24T17:10:52.913Z,28.60
2022-08-24T17:13:46.073Z,28.50
2022-08-24T17:16:07.136Z,28.60
2022-08-24T17:18:34.177Z,28.20
2022-08-24T17:21:01.317Z,27.90
2022-08-24T17:23:28.004Z,27.60
2022-08-24T17:25:54.654Z,27.50
2022-08-24T17:28:21.379Z,27.50
2022-08-24T17:30:51.365Z,27.50
2022-08-24T17:33:18.588Z,27.60
2022-08-24T17:35:45.311Z,27.40
2022-08-24T17:38:12.078Z,27.10
2022-08-24T17:40:38.686Z,27.00
2022-08-24T17:43:05.524Z,26.70
2022-08-24T17:45:32.371Z,26.50
2022-08-24T17:47:59.020Z,26.40
2022-08-24T17:50:26.647Z,26.20
2022-08-24T17:52:58.920Z,26.10
2022-08-24T17:55:27.804Z,26.00
2022-08-24T17:57:54.426Z,25.90
2022-08-24T18:00:21.144Z,25.80
2022-08-24T18:02:47.725Z,25.80
2022-08-24T18:05:14.850Z,25.70
2022-08-24T18:07:55.647Z,25.60
2022-08-24T18:10:28.037Z,25.60
2022-08-24T18:12:57.808Z,25.50
2022-08-24T18:15:34.823Z,25.30
2022-08-24T18:18:07.848Z,25.20
2022-08-24T18:20:37.710Z,25.20
2022-08-24T18:23:04.415Z,25.10
2022-08-24T18:25:35.978Z,25.10
2022-08-24T18:28:03.052Z,25.00
2022-08-24T18:30:31.963Z,24.90
2022-08-24T18:33:01.781Z,24.90
2022-08-24T18:35:30.612Z,24.80
2022-08-24T18:37:57.315Z,24.80
2022-08-24T18:40:27.051Z,24.70
2022-08-24T18:43:00.076Z,24.60
2022-08-24T18:45:31.214Z,24.60
2022-08-24T18:47:58.562Z,24.50
2022-08-24T18:50:28.272Z,24.50
2022-08-24T18:52:56.288Z,24.40
2022-08-24T18:55:24.175Z,24.40
2022-08-24T18:57:51.816Z,24.30
2022-08-24T19:00:18.773Z,24.30
2022-08-24T19:02:45.729Z,24.30
2022-08-24T19:05:20.079Z,24.20
2022-08-24T19:07:49.893Z,24.20
2022-08-24T19:10:20.715Z,24.20
2022-08-24T19:12:54.978Z,24.10
2022-08-24T19:15:31.989Z,24.10
2022-08-24T19:18:07.137Z,24.00
2022-08-24T19:20:35.325Z,23.90
2022-08-24T19:23:08.438Z,23.90
2022-08-24T19:25:37.320Z,23.80
2022-08-24T19:28:06.417Z,23.80
2022-08-24T19:30:33.037Z,23.80
2022-08-24T19:33:00.569Z,23.70
2022-08-24T19:35:27.818Z,23.70
2022-08-24T19:37:54.489Z,23.60
2022-08-24T19:40:21.202Z,23.60
2022-08-24T19:42:50.850Z,23.60
2022-08-24T19:45:40.833Z,23.60
2022-08-24T19:48:07.745Z,23.50
2022-08-24T19:50:35.978Z,23.50
2022-08-24T19:53:04.657Z,23.40
2022-08-24T19:55:32.616Z,23.40
2022-08-24T19:58:29.709Z,23.30
2022-08-24T20:01:01.675Z,23.30
2022-08-24T20:03:28.448Z,23.20
2022-08-24T20:05:55.070Z,23.20
2022-08-24T20:08:21.893Z,23.20
2022-08-24T20:10:49.634Z,23.20
2022-08-24T20:13:16.606Z,23.10
2022-08-24T20:15:43.613Z,23.10
2022-08-24T20:18:10.622Z,23.00
2022-08-24T20:20:37.491Z,23.00
2022-08-24T20:23:06.346Z,23.00
2022-08-24T20:25:37.385Z,23.00
2022-08-24T20:28:28.161Z,22.90
2022-08-24T20:30:52.837Z,22.90
2022-08-24T20:33:23.717Z,22.90
2022-08-24T20:35:50.931Z,22.80
2022-08-24T20:38:20.361Z,22.80
2022-08-24T20:40:47.977Z,22.80
2022-08-24T20:43:14.767Z,22.70
2022-08-24T20:45:41.788Z,22.70
2022-08-24T20:48:12.150Z,22.70
2022-08-24T20:50:39.422Z,22.70
2022-08-24T20:53:09.034Z,22.60
2022-08-24T20:55:38.706Z,22.60
2022-08-24T20:58:05.361Z,22.50
2022-08-24T21:00:32.081Z,22.40
2022-08-24T21:02:58.837Z,22.40
2022-08-24T21:05:25.466Z,22.40
2022-08-24T21:07:52.170Z,22.30
2022-08-24T21:10:24.933Z,22.40
2022-08-24T21:12:53.681Z,22.40
2022-08-24T21:15:22.406Z,22.40
2022-08-24T21:17:49.377Z,22.40
2022-08-24T21:20:16.506Z,22.30
2022-08-24T21:22:45.917Z,22.30
2022-08-24T21:25:14.353Z,22.30
2022-08-24T21:27:43.925Z,22.30
2022-08-24T21:30:20.570Z,22.30
2022-08-24T21:33:06.342Z,22.10
2022-08-24T21:35:34.703Z,22.10
2022-08-24T21:38:01.837Z,22.10
2022-08-24T21:40:29.327Z,22.10
2022-08-24T21:42:56.344Z,22.10
2022-08-24T21:45:24.109Z,22.00
2022-08-24T21:47:50.757Z,22.00
2022-08-24T21:50:18.590Z,22.00
2022-08-24T21:52:47.270Z,22.00
2022-08-24T21:55:19.465Z,21.90
2022-08-24T21:57:46.045Z,21.90
2022-08-24T22:00:18.485Z,21.90
2022-08-24T22:02:45.922Z,21.80
2022-08-24T22:05:12.652Z,21.80
2022-08-24T22:07:39.253Z,21.80
2022-08-24T22:10:08.023Z,21.80
2022-08-24T22:12:35.971Z,21.80
2022-08-24T22:15:05.368Z,21.70
2022-08-24T22:17:31.967Z,21.70
2022-08-24T22:19:58.637Z,21.60
2022-08-24T22:22:25.396Z,21.60
2022-08-24T22:24:52.113Z,21.60
2022-08-24T22:27:18.701Z,21.60
2022-08-24T22:29:48.390Z,21.60
2022-08-24T22:32:17.269Z,21.60
2022-08-24T22:34:43.863Z,21.50
2022-08-24T22:37:10.454Z,21.50
2022-08-24T22:39:37.054Z,21.50
2022-08-24T22:42:04.503Z,21.50
2022-08-24T22:44:32.185Z,21.50
2022-08-24T22:47:00.766Z,21.50
2022-08-24T22:49:30.638Z,21.50
2022-08-24T22:51:57.907Z,21.40
2022-08-24T22:54:25.514Z,21.40
2022-08-24T22:56:53.829Z,21.40
2022-08-24T22:59:25.394Z,21.40
2022-08-24T23:01:54.472Z,21.30
2022-08-24T23:04:27.025Z,21.20
2022-08-24T23:06:54.904Z,21.20
2022-08-24T23:09:21.857Z,21.30
2022-08-24T23:11:48.530Z,21.20
2022-08-24T23:14:15.753Z,21.10
2022-08-24T23:16:49.798Z,21.10
2022-08-24T23:19:36.946Z,21.10
2022-08-24T23:22:05.087Z,21.10
2022-08-24T23:24:32.511Z,21.10
2022-08-24T23:26:59.471Z,21.10
2022-08-24T23:29:26.081Z,21.10
2022-08-24T23:31:53.841Z,21.00
2022-08-24T23:34:22.154Z,21.00
2022-08-24T23:36:49.988Z,21.00
2022-08-24T23:39:17.635Z,21.00
2022-08-24T23:41:46.462Z,21.00
2022-08-24T23:44:16.339Z,20.90
2022-08-24T23:46:44.259Z,20.90
2022-08-24T23:49:12.626Z,20.90
2022-08-24T23:51:39.329Z,20.90
2022-08-24T23:54:07.183Z,20.90
2022-08-24T23:56:36.935Z,20.80
2022-08-24T23:59:07.057Z,20.80
